createdAt,value
2023-05-09T00:01:32.694Z,14.50
2023-05-09T00:04:02.032Z,13.75
2023-05-09T00:06:30.783Z,13.75
2023-05-09T00:08:59.636Z,13.75
2023-05-09T00:11:28.051Z,13.75
2023-05-09T00:13:56.750Z,14.25
2023-05-09T00:16:25.128Z,14.00
2023-05-09T00:18:53.843Z,15.00
2023-05-09T00:21:22.122Z,14.00
2023-05-09T00:23:51.264Z,15.00
2023-05-09T00:26:19.486Z,15.25
2023-05-09T00:28:49.114Z,13.50
2023-05-09T00:31:17.453Z,15.00
2023-05-09T00:33:46.294Z,16.25
2023-05-09T00:36:14.699Z,15.33
2023-05-09T00:38:43.516Z,14.00
2023-05-09T00:41:11.886Z,15.00
2023-05-09T00:43:40.843Z,15.25
2023-05-09T00:46:09.826Z,15.67
2023-05-09T00:48:38.568Z,15.50
2023-05-09T00:51:07.322Z,15.00
2023-05-09T00:53:36.963Z,13.50
2023-05-09T00:56:05.450Z,14.25
2023-05-09T00:58:34.142Z,14.00
2023-05-09T01:01:04.014Z,15.25
2023-05-09T01:03:33.120Z,14.33
2023-05-09T01:06:31.854Z,13.75
2023-05-09T01:09:12.270Z,14.00
2023-05-09T01:11:49.232Z,15.00
2023-05-09T01:14:23.411Z,13.75
2023-05-09T01:17:21.693Z,15.50
2023-05-09T01:19:59.351Z,14.00
2023-05-09T01:22:32.256Z,14.00
2023-05-09T01:25:07.491Z,13.00
2023-05-09T01:27:58.583Z,13.67
2023-05-09T01:30:27.806Z,15.25
2023-05-09T01:33:00.515Z,14.25
2023-05-09T01:35:31.538Z,14.00
2023-05-09T01:37:59.956Z,14.33
2023-05-09T01:40:31.656Z,15.50
2023-05-09T01:43:07.241Z,14.50
2023-05-09T01:45:37.150Z,14.25
2023-05-09T01:48:07.791Z,14.25
2023-05-09T01:50:36.798Z,13.75
2023-05-09T01:53:06.344Z,13.75
2023-05-09T01:55:36.628Z,14.25
2023-05-09T01:58:05.959Z,14.33
2023-05-09T02:00:35.339Z,13.50
2023-05-09T02:03:04.193Z,14.25
2023-05-09T02:05:35.407Z,14.33
2023-05-09T02:08:04.104Z,14.25
2023-05-09T02:10:36.044Z,14.00
2023-05-09T02:13:07.164Z,14.33
2023-05-09T02:15:36.228Z,14.25
2023-05-09T02:18:04.679Z,14.00
2023-05-09T02:20:36.176Z,14.00
2023-05-09T02:23:04.546Z,14.00
2023-05-09T02:25:34.605Z,14.25
2023-05-09T02:28:03.001Z,14.25
2023-05-09T02:30:35.830Z,14.00
2023-05-09T02:33:07.785Z,14.00
2023-05-09T02:35:38.425Z,15.25
2023-05-09T02:38:07.236Z,14.00
2023-05-09T02:40:37.490Z,14.00
2023-05-09T02:43:06.018Z,14.25
2023-05-09T02:45:34.680Z,12.00
2023-05-09T02:48:06.898Z,14.00
2023-05-09T02:50:38.652Z,14.00
2023-05-09T02:53:07.233Z,15.00
2023-05-09T02:55:36.120Z,14.00
2023-05-09T02:58:13.370Z,14.00
2023-05-09T03:00:44.242Z,12.50
2023-05-09T03:03:18.316Z,14.00
2023-05-09T03:05:47.815Z,14.00
2023-05-09T03:08:16.236Z,14.50
2023-05-09T03:10:45.779Z,14.33
2023-05-09T03:13:14.573Z,14.00
2023-05-09T03:15:43.266Z,14.00
2023-05-09T03:18:13.744Z,15.50
2023-05-09T03:20:42.555Z,14.25
2023-05-09T03:23:11.074Z,14.00
2023-05-09T03:25:39.784Z,14.25
2023-05-09T03:28:08.084Z,14.25
2023-05-09T03:30:37.222Z,13.75
2023-05-09T03:33:09.575Z,14.00
2023-05-09T03:35:38.244Z,13.67
2023-05-09T03:38:06.641Z,13.50
2023-05-09T03:40:35.236Z,14.00
2023-05-09T03:43:08.943Z,14.00
2023-05-09T03:45:38.645Z,14.50
2023-05-09T03:48:09.973Z,14.25
2023-05-09T03:50:43.685Z,15.00
2023-05-09T03:53:14.015Z,14.25
2023-05-09T03:55:44.327Z,15.25
2023-05-09T03:58:15.084Z,14.00
2023-05-09T04:00:45.584Z,14.00
2023-05-09T04:03:21.483Z,14.00
2023-05-09T04:05:52.240Z,16.00
2023-05-09T04:08:35.181Z,15.50
2023-05-09T04:11:06.398Z,14.00
2023-05-09T04:13:35.842Z,13.67
2023-05-09T04:16:10.110Z,15.00
2023-05-09T04:18:40.246Z,14.25
2023-05-09T04:21:09.458Z,14.25
2023-05-09T04:23:39.465Z,15.25
2023-05-09T04:26:09.914Z,14.00
2023-05-09T04:28:38.461Z,15.33
2023-05-09T04:31:07.416Z,15.00
2023-05-09T04:33:38.807Z,14.00
2023-05-09T04:36:08.126Z,15.00
2023-05-09T04:38:37.371Z,15.00
2023-05-09T04:41:09.833Z,15.25
2023-05-09T04:43:38.179Z,14.50
2023-05-09T04:46:08.564Z,15.00
2023-05-09T04:48:38.229Z,15.25
2023-05-09T04:51:06.981Z,15.75
2023-05-09T04:53:35.326Z,14.00
2023-05-09T04:56:04.013Z,14.00
2023-05-09T04:58:34.670Z,14.00
2023-05-09T05:01:04.114Z,15.67
2023-05-09T05:03:32.965Z,16.33
2023-05-09T05:06:02.149Z,15.50
2023-05-09T05:08:30.648Z,15.00
2023-05-09T05:10:59.950Z,15.67
2023-05-09T05:13:29.336Z,15.00
2023-05-09T05:16:01.750Z,15.25
2023-05-09T05:18:30.188Z,15.50
2023-05-09T05:20:58.702Z,15.25
2023-05-09T05:23:27.471Z,13.75
2023-05-09T05:25:57.290Z,16.00
2023-05-09T05:28:26.395Z,17.00
2023-05-09T05:30:55.158Z,15.75
2023-05-09T05:33:23.554Z,15.75
2023-05-09T05:35:52.405Z,17.00
2023-05-09T05:38:20.707Z,15.75
2023-05-09T05:40:53.508Z,15.50
2023-05-09T05:43:22.784Z,15.25
2023-05-09T05:45:51.392Z,16.50
2023-05-09T05:48:23.222Z,17.00
2023-05-09T05:50:52.834Z,15.50
2023-05-09T05:53:25.534Z,17.00
2023-05-09T05:55:54.261Z,16.33
2023-05-09T05:58:22.772Z,16.67
2023-05-09T06:00:52.929Z,15.00
2023-05-09T06:03:21.882Z,15.33
2023-05-09T06:05:56.770Z,15.00
2023-05-09T06:08:25.216Z,16.00
2023-05-09T06:10:54.010Z,15.75
2023-05-09T06:13:22.521Z,17.75
2023-05-09T06:16:01.997Z,16.50
2023-05-09T06:18:38.269Z,17.00
2023-05-09T06:21:07.604Z,15.50
2023-05-09T06:23:38.036Z,16.25
2023-05-09T06:26:09.060Z,16.75
2023-05-09T06:28:37.643Z,16.75
2023-05-09T06:31:06.581Z,15.00
2023-05-09T06:33:34.833Z,17.00
2023-05-09T06:36:03.542Z,16.33
2023-05-09T06:38:31.763Z,15.25
2023-05-09T06:41:00.485Z,15.50
2023-05-09T06:43:28.819Z,16.50
2023-05-09T06:45:57.422Z,17.00
2023-05-09T06:48:25.753Z,16.25
2023-05-09T06:50:54.435Z,17.00
2023-05-09T06:53:22.845Z,16.50
2023-05-09T06:55:51.609Z,15.00
2023-05-09T06:58:19.951Z,15.25
2023-05-09T07:00:48.781Z,16.00
2023-05-09T07:03:17.236Z,16.00
2023-05-09T07:05:46.095Z,17.50
2023-05-09T07:08:14.462Z,16.67
2023-05-09T07:10:43.041Z,16.33
2023-05-09T07:13:11.393Z,16.00
2023-05-09T07:15:42.638Z,16.67
2023-05-09T07:18:11.434Z,16.75
2023-05-09T07:20:40.096Z,17.00
2023-05-09T07:23:08.541Z,15.00
2023-05-09T07:25:37.222Z,15.00
2023-05-09T07:28:05.726Z,16.50
2023-05-09T07:30:34.329Z,16.67
2023-05-09T07:33:02.730Z,17.00
2023-05-09T07:35:31.507Z,15.67
2023-05-09T07:37:59.835Z,15.00
2023-05-09T07:40:28.496Z,15.00
2023-05-09T07:42:57.081Z,16.75
2023-05-09T07:45:26.060Z,16.50
2023-05-09T07:47:54.451Z,15.25
2023-05-09T07:50:23.762Z,15.50
2023-05-09T07:52:53.050Z,15.50
2023-05-09T07:55:21.774Z,16.67
2023-05-09T07:57:50.128Z,15.25
2023-05-09T08:00:23.999Z,15.00
2023-05-09T08:02:52.667Z,15.50
2023-05-09T08:05:21.515Z,17.00
2023-05-09T08:07:52.525Z,15.00
2023-05-09T08:10:23.301Z,15.25
2023-05-09T08:12:51.621Z,15.25
2023-05-09T08:15:20.238Z,16.25
2023-05-09T08:17:48.530Z,16.75
2023-05-09T08:20:17.697Z,14.75
2023-05-09T08:22:47.263Z,16.33
2023-05-09T08:25:18.467Z,16.50
2023-05-09T08:27:46.775Z,15.75
2023-05-09T08:30:15.808Z,15.00
2023-05-09T08:32:44.078Z,16.50
2023-05-09T08:35:13.511Z,16.50
2023-05-09T08:37:41.887Z,17.00
2023-05-09T08:40:10.844Z,15.33
2023-05-09T08:42:40.349Z,16.25
2023-05-09T08:45:15.289Z,15.25
2023-05-09T08:47:43.723Z,15.50
2023-05-09T08:50:15.499Z,16.25
2023-05-09T08:52:44.280Z,15.00
2023-05-09T08:55:13.019Z,15.00
2023-05-09T08:57:41.848Z,15.25
2023-05-09T09:00:15.985Z,15.50
2023-05-09T09:02:46.681Z,15.25
2023-05-09T09:05:34.232Z,15.50
2023-05-09T09:08:05.739Z,15.00
2023-05-09T09:10:35.028Z,16.25
2023-05-09T09:13:05.300Z,15.00
2023-05-09T09:15:37.327Z,15.00
2023-05-09T09:18:10.423Z,15.25
2023-05-09T09:20:46.821Z,17.00
2023-05-09T09:23:19.118Z,16.50
2023-05-09T09:25:48.355Z,15.00
2023-05-09T09:28:16.647Z,15.00
2023-05-09T09:30:47.792Z,15.33
2023-05-09T09:33:26.491Z,15.50
2023-05-09T09:35:56.511Z,15.50
2023-05-09T09:38:27.025Z,15.25
2023-05-09T09:40:56.369Z,15.25
2023-05-09T09:43:29.030Z,14.00
2023-05-09T09:46:01.113Z,15.25
2023-05-09T09:48:34.924Z,15.00
2023-05-09T09:51:12.931Z,16.33
2023-05-09T09:53:42.756Z,17.33
2023-05-09T09:56:11.949Z,16.50
2023-05-09T09:58:40.272Z,16.75
2023-05-09T10:01:10.465Z,16.50
2023-05-09T10:03:44.360Z,17.00
2023-05-09T10:06:14.717Z,16.75
2023-05-09T10:08:49.328Z,16.00
2023-05-09T10:11:17.965Z,15.00
2023-05-09T10:13:46.162Z,15.25
2023-05-09T10:16:14.872Z,16.25
2023-05-09T10:18:43.588Z,16.25
2023-05-09T10:21:14.824Z,17.00
2023-05-09T10:23:47.253Z,17.50
2023-05-09T10:26:19.355Z,17.00
2023-05-09T10:28:50.011Z,16.50
2023-05-09T10:31:29.200Z,17.67
2023-05-09T10:34:02.383Z,19.25
2023-05-09T10:36:31.385Z,24.00
2023-05-09T10:39:00.306Z,25.50
2023-05-09T10:41:29.064Z,19.00
2023-05-09T10:43:59.429Z,19.75
2023-05-09T10:46:28.286Z,18.25
2023-05-09T10:48:56.663Z,16.75
2023-05-09T10:51:25.486Z,16.33
2023-05-09T10:53:56.084Z,19.00
2023-05-09T10:56:36.050Z,20.75
2023-05-09T10:59:04.409Z,18.67
2023-05-09T11:01:39.227Z,18.67
2023-05-09T11:04:12.897Z,20.25
2023-05-09T11:06:45.007Z,18.75
2023-05-09T11:09:36.015Z,17.75
2023-05-09T11:12:04.848Z,17.50
2023-05-09T11:14:36.021Z,17.75
2023-05-09T11:17:15.996Z,16.25
2023-05-09T11:19:46.906Z,18.67
2023-05-09T11:22:28.294Z,17.25
2023-05-09T11:25:05.012Z,17.50
2023-05-09T11:27:48.799Z,18.00
2023-05-09T11:30:19.081Z,19.00
2023-05-09T11:32:59.291Z,16.50
2023-05-09T11:35:28.162Z,16.75
2023-05-09T11:38:00.810Z,17.75
2023-05-09T11:40:30.419Z,19.00
2023-05-09T11:43:00.130Z,18.00
2023-05-09T11:45:30.908Z,18.50
2023-05-09T11:48:01.452Z,19.67
2023-05-09T11:50:29.809Z,17.25
2023-05-09T11:52:58.777Z,19.25
2023-05-09T11:55:30.497Z,17.50
2023-05-09T11:57:59.168Z,18.00
2023-05-09T12:00:27.627Z,17.50
2023-05-09T12:02:56.534Z,18.00
2023-05-09T12:05:24.812Z,18.00
2023-05-09T12:07:53.436Z,20.75
2023-05-09T12:10:23.401Z,17.50
2023-05-09T12:12:55.778Z,18.00
2023-05-09T12:15:24.698Z,19.25
2023-05-09T12:18:08.636Z,19.00
2023-05-09T12:20:52.851Z,19.50
2023-05-09T12:23:23.467Z,19.33
2023-05-09T12:25:55.773Z,21.75
2023-05-09T12:28:25.540Z,20.25
2023-05-09T12:30:54.308Z,20.25
2023-05-09T12:33:22.980Z,19.00
2023-05-09T12:36:03.646Z,19.33
2023-05-09T12:38:32.057Z,18.50
2023-05-09T12:41:03.664Z,18.00
2023-05-09T12:43:36.957Z,18.00
2023-05-09T12:46:05.769Z,18.00
2023-05-09T12:48:40.242Z,17.00
2023-05-09T12:51:08.343Z,16.50
2023-05-09T12:53:41.318Z,18.00
2023-05-09T12:56:17.823Z,15.33
2023-05-09T12:58:53.932Z,18.00
2023-05-09T13:01:25.352Z,17.33
2023-05-09T13:04:02.293Z,17.50
2023-05-09T13:06:30.912Z,17.00
2023-05-09T13:09:06.189Z,18.25
2023-05-09T13:11:37.812Z,16.50
2023-05-09T13:14:06.160Z,17.00
2023-05-09T13:16:34.835Z,16.50
2023-05-09T13:19:05.676Z,17.50
2023-05-09T13:21:34.473Z,16.50
2023-05-09T13:24:04.501Z,16.75
2023-05-09T13:26:32.693Z,16.50
2023-05-09T13:29:01.294Z,16.75
2023-05-09T13:31:29.395Z,17.00
2023-05-09T13:33:57.986Z,16.67
2023-05-09T13:36:26.218Z,16.50
2023-05-09T13:38:54.665Z,17.00
2023-05-09T13:41:24.230Z,16.25
2023-05-09T13:43:52.608Z,15.25
2023-05-09T13:46:20.921Z,17.00
2023-05-09T13:48:49.391Z,16.00
2023-05-09T13:51:17.367Z,16.00
2023-05-09T13:53:45.998Z,15.25
2023-05-09T13:56:14.080Z,17.00
2023-05-09T13:58:42.534Z,17.00
2023-05-09T14:01:10.679Z,16.50
2023-05-09T14:03:39.242Z,16.33
2023-05-09T14:06:09.614Z,15.25
2023-05-09T14:08:39.996Z,17.67
2023-05-09T14:11:09.135Z,16.67
2023-05-09T14:13:37.549Z,16.00
2023-05-09T14:16:06.446Z,16.50
2023-05-09T14:18:36.228Z,16.25
2023-05-09T14:21:04.444Z,17.00
2023-05-09T14:23:32.887Z,16.67
2023-05-09T14:26:00.985Z,15.25
2023-05-09T14:28:29.474Z,16.75
2023-05-09T14:30:57.925Z,16.67
2023-05-09T14:33:27.827Z,16.50
2023-05-09T14:35:55.941Z,16.75
2023-05-09T14:38:24.389Z,15.00
2023-05-09T14:40:52.458Z,15.00
2023-05-09T14:43:22.469Z,15.25
2023-05-09T14:45:51.879Z,15.50
2023-05-09T14:48:20.330Z,15.00
2023-05-09T14:50:50.132Z,15.50
2023-05-09T14:53:18.732Z,15.33
2023-05-09T14:55:46.796Z,17.00
2023-05-09T14:58:16.232Z,15.50
2023-05-09T15:00:45.378Z,16.25
2023-05-09T15:03:14.428Z,15.00
2023-05-09T15:05:42.604Z,16.75
2023-05-09T15:08:11.082Z,16.75
2023-05-09T15:10:39.235Z,18.00
2023-05-09T15:13:09.374Z,18.00
2023-05-09T15:15:40.810Z,17.75
2023-05-09T15:18:10.413Z,18.00
2023-05-09T15:20:38.500Z,16.67
2023-05-09T15:23:08.168Z,15.50
2023-05-09T15:25:36.464Z,17.00
2023-05-09T15:28:04.987Z,16.75
2023-05-09T15:30:33.166Z,17.25
2023-05-09T15:33:02.830Z,18.00
2023-05-09T15:35:31.337Z,19.00
2023-05-09T15:38:00.128Z,19.25
2023-05-09T15:40:29.138Z,16.67
2023-05-09T15:43:00.038Z,19.50
2023-05-09T15:45:45.370Z,18.25
2023-05-09T15:48:14.691Z,17.75
2023-05-09T15:50:44.371Z,19.00
2023-05-09T15:53:12.841Z,18.75
2023-05-09T15:55:40.884Z,19.50
2023-05-09T15:58:11.053Z,17.50
2023-05-09T16:00:40.193Z,17.00
2023-05-09T16:03:08.659Z,17.00
2023-05-09T16:05:37.147Z,16.50
2023-05-09T16:08:05.640Z,19.33
2023-05-09T16:10:33.694Z,16.25
2023-05-09T16:13:03.497Z,18.00
2023-05-09T16:15:31.721Z,18.75
2023-05-09T16:18:01.054Z,17.75
2023-05-09T16:20:29.193Z,17.75
2023-05-09T16:22:58.166Z,18.50
2023-05-09T16:25:26.333Z,19.33
2023-05-09T16:27:54.866Z,17.50
2023-05-09T16:30:23.342Z,17.75
2023-05-09T16:32:53.020Z,17.75
2023-05-09T16:35:22.027Z,19.00
2023-05-09T16:37:50.836Z,18.00
2023-05-09T16:40:19.926Z,18.00
2023-05-09T16:42:48.271Z,18.50
2023-05-09T16:45:16.446Z,18.00
2023-05-09T16:47:44.959Z,16.75
2023-05-09T16:50:13.426Z,19.33
2023-05-09T16:52:42.571Z,20.50
2023-05-09T16:55:10.720Z,17.50
2023-05-09T16:57:39.239Z,17.50
2023-05-09T17:00:10.174Z,17.00
2023-05-09T17:02:38.762Z,17.25
2023-05-09T17:05:07.716Z,18.25
2023-05-09T17:07:36.242Z,17.25
2023-05-09T17:10:04.572Z,18.50
2023-05-09T17:12:33.135Z,17.00
2023-05-09T17:15:01.307Z,17.75
2023-05-09T17:17:31.360Z,18.50
2023-05-09T17:20:01.465Z,17.00
2023-05-09T17:22:30.483Z,18.00
2023-05-09T17:24:58.582Z,19.00
2023-05-09T17:27:27.280Z,17.67
2023-05-09T17:29:55.344Z,17.75
2023-05-09T17:32:23.860Z,16.50
2023-05-09T17:34:52.124Z,18.00
2023-05-09T17:37:20.455Z,18.25
2023-05-09T17:39:48.646Z,18.00
2023-05-09T17:42:17.094Z,17.00
2023-05-09T17:44:45.143Z,18.25
2023-05-09T17:47:14.333Z,17.25
2023-05-09T17:49:42.419Z,19.00
2023-05-09T17:52:10.927Z,17.50
2023-05-09T17:54:39.014Z,18.25
2023-05-09T17:57:07.576Z,19.50
2023-05-09T17:59:35.722Z,22.00
2023-05-09T18:02:04.182Z,23.00
2023-05-09T18:04:35.232Z,22.75
2023-05-09T18:07:04.164Z,20.25
2023-05-09T18:09:32.269Z,20.75
2023-05-09T18:12:00.717Z,18.25
2023-05-09T18:14:29.451Z,19.33
2023-05-09T18:16:57.792Z,18.25
2023-05-09T18:19:25.895Z,18.00
2023-05-09T18:21:54.916Z,18.00
2023-05-09T18:24:23.379Z,18.00
2023-05-09T18:26:51.984Z,16.75
2023-05-09T18:29:20.240Z,16.75
2023-05-09T18:31:48.750Z,17.00
2023-05-09T18:34:17.011Z,16.50
2023-05-09T18:36:45.449Z,17.00
2023-05-09T18:39:15.596Z,15.25
2023-05-09T18:41:45.222Z,15.00
2023-05-09T18:44:17.805Z,15.25
2023-05-09T18:46:50.944Z,15.00
2023-05-09T18:49:19.172Z,15.50
2023-05-09T18:51:53.644Z,17.00
2023-05-09T18:54:21.962Z,16.00
2023-05-09T18:56:51.943Z,13.50
2023-05-09T18:59:20.581Z,15.50
2023-05-09T19:01:49.019Z,15.75
2023-05-09T19:04:19.722Z,15.00
2023-05-09T19:06:53.989Z,15.25
2023-05-09T19:09:22.046Z,13.67
2023-05-09T19:11:53.992Z,15.00
2023-05-09T19:14:23.100Z,15.00
2023-05-09T19:16:52.157Z,16.75
2023-05-09T19:19:27.699Z,16.00
2023-05-09T19:21:56.260Z,15.33
2023-05-09T19:24:24.390Z,16.67
2023-05-09T19:26:53.940Z,16.50
2023-05-09T19:29:24.519Z,15.50
2023-05-09T19:31:53.919Z,15.00
2023-05-09T19:34:23.990Z,16.00
2023-05-09T19:36:52.397Z,15.00
2023-05-09T19:39:20.419Z,18.25
2023-05-09T19:41:50.463Z,16.75
2023-05-09T19:44:18.575Z,15.50
2023-05-09T19:46:47.108Z,16.50
2023-05-09T19:49:17.917Z,16.50
2023-05-09T19:51:46.612Z,16.50
2023-05-09T19:54:14.746Z,17.00
2023-05-09T19:56:44.813Z,17.75
2023-05-09T19:59:12.978Z,16.50
2023-05-09T20:01:41.370Z,16.50
2023-05-09T20:04:11.098Z,17.25
2023-05-09T20:06:42.448Z,16.67
2023-05-09T20:09:10.416Z,18.00
2023-05-09T20:11:38.795Z,15.50
2023-05-09T20:14:06.834Z,20.00
2023-05-09T20:16:35.648Z,19.00
2023-05-09T20:19:05.407Z,19.00
2023-05-09T20:21:35.766Z,18.75
2023-05-09T20:24:03.984Z,18.50
2023-05-09T20:26:53.351Z,18.00
2023-05-09T20:29:41.515Z,16.67
2023-05-09T20:32:11.506Z,18.25
2023-05-09T20:34:40.262Z,16.00
2023-05-09T20:37:09.112Z,17.33
2023-05-09T20:39:42.240Z,16.67
